sensor_id;sensor_type;location;lat;lon;timestamp;pressure;altitude;pressure_sealevel;temperature;humidity
50087;BME280;35967;50.718;7.050;2023-01-30T00:07:50;101232.72;;;3.41;88.16
50087;BME280;35967;50.718;7.050;2023-01-30T00:17:53;101244.78;;;3.53;88.45
50087;BME280;35967;50.718;7.050;2023-01-30T00:27:59;101196.66;;;3.66;89.07
50087;BME280;35967;50.718;7.050;2023-01-30T00:38:03;101177.25;;;3.74;89.27
50087;BME280;35967;50.718;7.050;2023-01-30T00:48:07;101167.09;;;3.77;89.32
50087;BME280;35967;50.718;7.050;2023-01-30T00:58:11;101158.69;;;3.83;89.77
50087;BME280;35967;50.718;7.050;2023-01-30T01:08:15;101145.13;;;3.85;90.42
50087;BME280;35967;50.718;7.050;2023-01-30T01:18:21;101122.28;;;3.90;90.21
50087;BME280;35967;50.718;7.050;2023-01-30T01:28:25;101133.28;;;3.89;90.71
50087;BME280;35967;50.718;7.050;2023-01-30T01:38:29;101126.56;;;3.92;90.52
50087;BME280;35967;50.718;7.050;2023-01-30T01:48:37;101127.38;;;3.90;89.87
50087;BME280;35967;50.718;7.050;2023-01-30T01:58:46;101118.94;;;3.95;89.85
50087;BME280;35967;50.718;7.050;2023-01-30T02:08:54;101131.75;;;3.99;90.05
50087;BME280;35967;50.718;7.050;2023-01-30T02:19:01;101102.00;;;3.99;91.01
50087;BME280;35967;50.718;7.050;2023-01-30T02:29:40;101089.38;;;4.07;90.68
50087;BME280;35967;50.718;7.050;2023-01-30T02:40:02;101045.25;;;4.09;91.80
50087;BME280;35967;50.718;7.050;2023-01-30T02:50:12;101023.34;;;4.27;91.60
50087;BME280;35967;50.718;7.050;2023-01-30T03:00:25;101021.78;;;4.40;91.20
50087;BME280;35967;50.718;7.050;2023-01-30T03:10:36;101037.13;;;4.45;90.87
50087;BME280;35967;50.718;7.050;2023-01-30T03:20:43;101009.97;;;4.50;92.72
50087;BME280;35967;50.718;7.050;2023-01-30T03:30:47;100974.31;;;4.57;93.14
50087;BME280;35967;50.718;7.050;2023-01-30T03:40:51;100949.69;;;4.61;94.14
50087;BME280;35967;50.718;7.050;2023-01-30T03:50:56;100928.53;;;4.70;93.92
50087;BME280;35967;50.718;7.050;2023-01-30T04:01:00;100910.75;;;4.84;91.76
50087;BME280;35967;50.718;7.050;2023-01-30T04:11:04;100907.44;;;5.00;91.49
50087;BME280;35967;50.718;7.050;2023-01-30T04:21:10;100893.06;;;5.15;89.88
50087;BME280;35967;50.718;7.050;2023-01-30T04:31:14;100869.22;;;5.17;90.36
50087;BME280;35967;50.718;7.050;2023-01-30T04:41:27;100901.56;;;5.21;90.32
50087;BME280;35967;50.718;7.050;2023-01-30T04:51:34;100881.97;;;5.13;91.37
50087;BME280;35967;50.718;7.050;2023-01-30T05:01:40;100891.34;;;5.17;92.12
50087;BME280;35967;50.718;7.050;2023-01-30T05:11:43;100872.66;;;5.26;92.71
50087;BME280;35967;50.718;7.050;2023-01-30T05:21:48;100873.53;;;5.34;92.43
50087;BME280;35967;50.718;7.050;2023-01-30T05:31:50;100848.84;;;5.30;92.71
50087;BME280;35967;50.718;7.050;2023-01-30T05:41:55;100872.69;;;5.30;94.46
50087;BME280;35967;50.718;7.050;2023-01-30T05:51:59;100852.25;;;5.24;98.24
50087;BME280;35967;50.718;7.050;2023-01-30T06:02:03;100852.16;;;4.95;100.00
50087;BME280;35967;50.718;7.050;2023-01-30T06:12:07;100861.53;;;5.05;100.00
50087;BME280;35967;50.718;7.050;2023-01-30T06:22:12;100864.94;;;5.05;100.00
50087;BME280;35967;50.718;7.050;2023-01-30T06:32:15;100869.19;;;5.07;100.00
50087;BME280;35967;50.718;7.050;2023-01-30T06:42:20;100887.09;;;5.17;100.00
50087;BME280;35967;50.718;7.050;2023-01-30T06:52:23;100870.09;;;5.21;100.00
50087;BME280;35967;50.718;7.050;2023-01-30T07:02:28;100888.84;;;5.31;100.00
50087;BME280;35967;50.718;7.050;2023-01-30T07:12:35;100906.75;;;5.40;100.00
50087;BME280;35967;50.718;7.050;2023-01-30T07:22:40;100907.66;;;5.58;99.87
50087;BME280;35967;50.718;7.050;2023-01-30T07:32:43;100911.91;;;5.52;100.00
50087;BME280;35967;50.718;7.050;2023-01-30T07:42:56;100887.22;;;5.64;100.00
50087;BME280;35967;50.718;7.050;2023-01-30T07:53:02;100908.50;;;5.58;100.00
50087;BME280;35967;50.718;7.050;2023-01-30T08:03:10;100930.66;;;5.67;100.00
50087;BME280;35967;50.718;7.050;2023-01-30T08:13:14;100950.22;;;5.63;100.00
50087;BME280;35967;50.718;7.050;2023-01-30T08:23:19;100938.31;;;5.67;100.00
50087;BME280;35967;50.718;7.050;2023-01-30T08:33:22;100931.50;;;5.64;100.00
50087;BME280;35967;50.718;7.050;2023-01-30T08:43:27;100932.38;;;5.68;100.00
50087;BME280;35967;50.718;7.050;2023-01-30T08:53:31;100940.06;;;5.85;100.00
50087;BME280;35967;50.718;7.050;2023-01-30T09:03:36;100954.56;;;5.97;100.00
50087;BME280;35967;50.718;7.050;2023-01-30T09:13:39;100964.00;;;6.18;100.00
50087;BME280;35967;50.718;7.050;2023-01-30T09:23:46;100948.66;;;6.27;100.00
50087;BME280;35967;50.718;7.050;2023-01-30T09:33:49;100958.03;;;6.49;97.33
50087;BME280;35967;50.718;7.050;2023-01-30T09:44:09;100940.94;;;6.83;94.61
50087;BME280;35967;50.718;7.050;2023-01-30T09:54:22;100956.28;;;6.88;95.87
50087;BME280;35967;50.718;7.050;2023-01-30T10:04:32;100953.66;;;7.09;91.35
50087;BME280;35967;50.718;7.050;2023-01-30T10:14:52;100968.13;;;7.21;89.75
50087;BME280;35967;50.718;7.050;2023-01-30T10:25:12;100967.25;;;7.30;88.13
50087;BME280;35967;50.718;7.050;2023-01-30T10:35:22;100974.00;;;7.51;84.69
50087;BME280;35967;50.718;7.050;2023-01-30T10:45:34;100989.31;;;7.64;81.41
50087;BME280;35967;50.718;7.050;2023-01-30T10:55:46;100995.34;;;7.56;79.75
50087;BME280;35967;50.718;7.050;2023-01-30T11:05:54;100959.44;;;7.61;77.09
50087;BME280;35967;50.718;7.050;2023-01-30T11:16:02;100996.16;;;7.66;77.57
50087;BME280;35967;50.718;7.050;2023-01-30T11:26:17;101012.41;;;7.56;75.37
50087;BME280;35967;50.718;7.050;2023-01-30T11:36:24;100992.00;;;7.39;73.37
50087;BME280;35967;50.718;7.050;2023-01-30T11:46:32;100995.34;;;7.49;74.83
50087;BME280;35967;50.718;7.050;2023-01-30T11:56:38;100982.59;;;7.41;75.06
50087;BME280;35967;50.718;7.050;2023-01-30T12:06:44;100991.78;;;7.88;82.82
50087;BME280;35967;50.718;7.050;2023-01-30T12:16:59;100977.44;;;7.47;77.06
50087;BME280;35967;50.718;7.050;2023-01-30T12:27:14;100984.13;;;7.79;75.22
50087;BME280;35967;50.718;7.050;2023-01-30T12:37:27;100995.38;;;7.47;75.71
50087;BME280;35967;50.718;7.050;2023-01-30T12:47:56;101021.84;;;7.45;76.47
50087;BME280;35967;50.718;7.050;2023-01-30T12:58:06;101017.63;;;7.26;75.87
50087;BME280;35967;50.718;7.050;2023-01-30T13:08:31;101028.75;;;7.16;76.23
50087;BME280;35967;50.718;7.050;2023-01-30T13:18:42;101026.19;;;7.18;76.12
50087;BME280;35967;50.718;7.050;2023-01-30T13:28:52;101041.53;;;7.24;74.56
50087;BME280;35967;50.718;7.050;2023-01-30T13:39:01;101057.69;;;7.46;74.62
50087;BME280;35967;50.718;7.050;2023-01-30T13:49:12;101092.72;;;7.35;74.00
50087;BME280;35967;50.718;7.050;2023-01-30T13:59:28;101088.47;;;7.28;72.93
50087;BME280;35967;50.718;7.050;2023-01-30T14:09:41;101083.34;;;7.28;72.68
50087;BME280;35967;50.718;7.050;2023-01-30T14:19:56;101110.66;;;7.29;71.82
50087;BME280;35967;50.718;7.050;2023-01-30T14:30:34;101127.72;;;7.25;69.41
50087;BME280;35967;50.718;7.050;2023-01-30T14:41:14;101136.28;;;7.32;70.59
50087;BME280;35967;50.718;7.050;2023-01-30T14:51:23;101154.19;;;7.30;69.54
50087;BME280;35967;50.718;7.050;2023-01-30T15:01:56;101171.25;;;7.20;70.69
50087;BME280;35967;50.718;7.050;2023-01-30T15:12:14;101178.94;;;7.03;70.95
50087;BME280;35967;50.718;7.050;2023-01-30T15:22:27;101185.75;;;7.06;70.94
50087;BME280;35967;50.718;7.050;2023-01-30T15:32:34;101190.88;;;7.03;70.87
50087;BME280;35967;50.718;7.050;2023-01-30T15:42:37;101218.16;;;7.05;71.42
50087;BME280;35967;50.718;7.050;2023-01-30T15:52:44;101232.69;;;7.05;71.71
50087;BME280;35967;50.718;7.050;2023-01-30T16:02:49;101243.78;;;6.98;72.09
50087;BME280;35967;50.718;7.050;2023-01-30T16:12:54;101264.28;;;7.01;72.38
50087;BME280;35967;50.718;7.050;2023-01-30T16:22:58;101282.09;;;6.79;73.26
50087;BME280;35967;50.718;7.050;2023-01-30T16:33:05;101308.53;;;6.75;73.04
50087;BME280;35967;50.718;7.050;2023-01-30T16:43:16;101319.56;;;6.66;73.15
50087;BME280;35967;50.718;7.050;2023-01-30T16:53:22;101338.34;;;6.70;73.41
50087;BME280;35967;50.718;7.050;2023-01-30T17:03:28;101353.66;;;6.65;73.22
50087;BME280;35967;50.718;7.050;2023-01-30T17:13:37;101377.50;;;6.55;72.89
50087;BME280;35967;50.718;7.050;2023-01-30T17:23:44;101377.47;;;6.50;73.03
50087;BME280;35967;50.718;7.050;2023-01-30T17:33:49;101397.06;;;6.46;73.66
50087;BME280;35967;50.718;7.050;2023-01-30T17:43:52;101409.81;;;6.45;74.37
50087;BME280;35967;50.718;7.050;2023-01-30T17:53:56;101432.75;;;6.34;73.87
50087;BME280;35967;50.718;7.050;2023-01-30T18:03:59;101425.03;;;6.28;74.25
50087;BME280;35967;50.718;7.050;2023-01-30T18:14:03;101440.38;;;6.28;75.03
50087;BME280;35967;50.718;7.050;2023-01-30T18:24:08;101470.25;;;6.34;74.62
50087;BME280;35967;50.718;7.050;2023-01-30T18:34:15;101483.94;;;6.37;74.33
50087;BME280;35967;50.718;7.050;2023-01-30T18:44:18;101483.84;;;6.26;75.19
50087;BME280;35967;50.718;7.050;2023-01-30T18:54:22;101486.31;;;6.15;74.43
50087;BME280;35967;50.718;7.050;2023-01-30T19:04:25;101481.09;;;6.09;75.26
50087;BME280;35967;50.718;7.050;2023-01-30T19:14:30;101503.28;;;6.09;74.58
50087;BME280;35967;50.718;7.050;2023-01-30T19:24:33;101499.03;;;6.14;74.00
50087;BME280;35967;50.718;7.050;2023-01-30T19:34:37;101512.81;;;6.25;73.69
50087;BME280;35967;50.718;7.050;2023-01-30T19:44:40;101527.34;;;6.34;76.05
50087;BME280;35967;50.718;7.050;2023-01-30T19:54:45;101531.47;;;6.18;79.63
50087;BME280;35967;50.718;7.050;2023-01-30T20:04:48;101556.16;;;6.16;78.82
50087;BME280;35967;50.718;7.050;2023-01-30T20:14:53;101566.44;;;6.21;79.05
50087;BME280;35967;50.718;7.050;2023-01-30T20:24:56;101576.63;;;6.16;79.13
50087;BME280;35967;50.718;7.050;2023-01-30T20:35:00;101590.34;;;6.23;79.33
50087;BME280;35967;50.718;7.050;2023-01-30T20:45:05;101600.34;;;6.04;81.00
50087;BME280;35967;50.718;7.050;2023-01-30T20:55:10;101604.47;;;5.94;82.09
50087;BME280;35967;50.718;7.050;2023-01-30T21:05:13;101613.84;;;5.95;82.54
50087;BME280;35967;50.718;7.050;2023-01-30T21:15:22;101622.34;;;5.93;82.73
50087;BME280;35967;50.718;7.050;2023-01-30T21:25:25;101638.47;;;5.90;82.87
50087;BME280;35967;50.718;7.050;2023-01-30T21:35:30;101642.59;;;5.80;84.59
50087;BME280;35967;50.718;7.050;2023-01-30T21:45:33;101652.19;;;5.95;84.52
50087;BME280;35967;50.718;7.050;2023-01-30T21:55:38;101664.00;;;5.90;84.08
50087;BME280;35967;50.718;7.050;2023-01-30T22:05:43;101672.50;;;5.89;83.94
50087;BME280;35967;50.718;7.050;2023-01-30T22:15:47;101681.06;;;5.91;83.73
50087;BME280;35967;50.718;7.050;2023-01-30T22:25:54;101688.56;;;5.79;83.50
50087;BME280;35967;50.718;7.050;2023-01-30T22:37:16;101695.63;;;5.97;82.21
50087;BME280;35967;50.718;7.050;2023-01-30T22:47:19;101695.38;;;5.78;82.47
50087;BME280;35967;50.718;7.050;2023-01-30T22:57:23;101711.44;;;5.69;83.77
50087;BME280;35967;50.718;7.050;2023-01-30T23:07:28;101708.66;;;5.56;84.87
50087;BME280;35967;50.718;7.050;2023-01-30T23:17:32;101710.59;;;5.71;84.36
50087;BME280;35967;50.718;7.050;2023-01-30T23:27:53;101701.06;;;5.59;85.73
50087;BME280;35967;50.718;7.050;2023-01-30T23:37:58;101711.19;;;5.54;85.36
50087;BME280;35967;50.718;7.050;2023-01-30T23:48:20;101707.22;;;5.72;85.57
50087;BME280;35967;50.718;7.050;2023-01-30T23:58:25;101700.97;;;5.54;84.73
